sensor_id;sensor_type;location;lat;lon;timestamp;P1;durP1;ratioP1;P2;durP2;ratioP2
18072;SDS011;9161;47.348;9.648;2023-06-24T00:04:47;9.47;;;6.73;;
18072;SDS011;9161;47.348;9.648;2023-06-24T00:09:50;13.63;;;6.80;;
18072;SDS011;9161;47.348;9.648;2023-06-24T00:14:53;13.83;;;6.90;;
18072;SDS011;9161;47.348;9.648;2023-06-24T00:19:55;9.50;;;7.03;;
18072;SDS011;9161;47.348;9.648;2023-06-24T00:24:58;13.13;;;7.37;;
18072;SDS011;9161;47.348;9.648;2023-06-24T00:30:01;16.93;;;10.27;;
18072;SDS011;9161;47.348;9.648;2023-06-24T00:35:04;13.80;;;8.13;;
18072;SDS011;9161;47.348;9.648;2023-06-24T00:40:09;14.40;;;8.00;;
18072;SDS011;9161;47.348;9.648;2023-06-24T00:45:15;15.63;;;8.30;;
18072;SDS011;9161;47.348;9.648;2023-06-24T00:50:18;14.90;;;7.67;;
18072;SDS011;9161;47.348;9.648;2023-06-24T00:55:21;9.87;;;6.80;;
18072;SDS011;9161;47.348;9.648;2023-06-24T01:00:23;16.47;;;7.40;;
18072;SDS011;9161;47.348;9.648;2023-06-24T01:05:26;9.93;;;6.33;;
18072;SDS011;9161;47.348;9.648;2023-06-24T01:10:37;8.73;;;5.97;;
18072;SDS011;9161;47.348;9.648;2023-06-24T01:15:39;11.43;;;5.70;;
18072;SDS011;9161;47.348;9.648;2023-06-24T01:20:44;10.40;;;5.87;;
18072;SDS011;9161;47.348;9.648;2023-06-24T01:25:57;13.30;;;5.57;;
18072;SDS011;9161;47.348;9.648;2023-06-24T01:31:31;11.57;;;6.57;;
18072;SDS011;9161;47.348;9.648;2023-06-24T01:36:38;9.57;;;5.77;;
18072;SDS011;9161;47.348;9.648;2023-06-24T01:41:46;8.03;;;4.57;;
18072;SDS011;9161;47.348;9.648;2023-06-24T01:46:55;10.17;;;4.97;;
18072;SDS011;9161;47.348;9.648;2023-06-24T01:51:59;9.60;;;5.10;;
18072;SDS011;9161;47.348;9.648;2023-06-24T01:57:05;7.00;;;5.30;;
18072;SDS011;9161;47.348;9.648;2023-06-24T02:02:09;9.50;;;6.40;;
18072;SDS011;9161;47.348;9.648;2023-06-24T02:07:13;9.80;;;6.20;;
18072;SDS011;9161;47.348;9.648;2023-06-24T02:12:16;9.23;;;5.10;;
18072;SDS011;9161;47.348;9.648;2023-06-24T02:17:21;11.43;;;5.00;;
18072;SDS011;9161;47.348;9.648;2023-06-24T02:22:25;13.57;;;6.30;;
18072;SDS011;9161;47.348;9.648;2023-06-24T02:27:27;10.03;;;6.53;;
18072;SDS011;9161;47.348;9.648;2023-06-24T02:32:32;12.87;;;6.43;;
18072;SDS011;9161;47.348;9.648;2023-06-24T02:37:36;14.63;;;6.33;;
18072;SDS011;9161;47.348;9.648;2023-06-24T02:42:38;11.20;;;5.87;;
18072;SDS011;9161;47.348;9.648;2023-06-24T02:47:41;10.20;;;6.27;;
18072;SDS011;9161;47.348;9.648;2023-06-24T02:52:47;9.47;;;6.63;;
18072;SDS011;9161;47.348;9.648;2023-06-24T02:57:50;9.17;;;6.30;;
18072;SDS011;9161;47.348;9.648;2023-06-24T03:02:55;11.63;;;6.60;;
18072;SDS011;9161;47.348;9.648;2023-06-24T03:07:57;7.63;;;6.00;;
18072;SDS011;9161;47.348;9.648;2023-06-24T03:13:00;11.70;;;6.20;;
18072;SDS011;9161;47.348;9.648;2023-06-24T03:18:03;9.73;;;6.27;;
18072;SDS011;9161;47.348;9.648;2023-06-24T03:23:05;13.37;;;6.27;;
18072;SDS011;9161;47.348;9.648;2023-06-24T03:28:08;11.67;;;6.50;;
18072;SDS011;9161;47.348;9.648;2023-06-24T03:33:11;10.60;;;7.10;;
18072;SDS011;9161;47.348;9.648;2023-06-24T03:38:17;10.97;;;6.90;;
18072;SDS011;9161;47.348;9.648;2023-06-24T03:43:19;13.27;;;6.80;;
18072;SDS011;9161;47.348;9.648;2023-06-24T03:48:22;12.40;;;6.37;;
18072;SDS011;9161;47.348;9.648;2023-06-24T03:53:24;11.57;;;7.17;;
18072;SDS011;9161;47.348;9.648;2023-06-24T03:58:26;10.67;;;6.53;;
18072;SDS011;9161;47.348;9.648;2023-06-24T04:03:29;11.33;;;7.30;;
18072;SDS011;9161;47.348;9.648;2023-06-24T04:08:32;13.43;;;7.23;;
18072;SDS011;9161;47.348;9.648;2023-06-24T04:13:34;12.13;;;7.13;;
18072;SDS011;9161;47.348;9.648;2023-06-24T04:18:37;11.27;;;6.87;;
18072;SDS011;9161;47.348;9.648;2023-06-24T04:23:39;12.97;;;7.43;;
18072;SDS011;9161;47.348;9.648;2023-06-24T04:28:42;12.70;;;6.73;;
18072;SDS011;9161;47.348;9.648;2023-06-24T04:33:46;10.07;;;6.17;;
18072;SDS011;9161;47.348;9.648;2023-06-24T04:38:48;10.47;;;7.20;;
18072;SDS011;9161;47.348;9.648;2023-06-24T04:43:50;11.63;;;7.43;;
18072;SDS011;9161;47.348;9.648;2023-06-24T04:48:54;12.43;;;6.73;;
18072;SDS011;9161;47.348;9.648;2023-06-24T04:53:56;12.63;;;7.00;;
18072;SDS011;9161;47.348;9.648;2023-06-24T04:58:58;10.43;;;6.67;;
18072;SDS011;9161;47.348;9.648;2023-06-24T05:04:01;11.77;;;7.60;;
18072;SDS011;9161;47.348;9.648;2023-06-24T05:09:03;13.93;;;8.00;;
18072;SDS011;9161;47.348;9.648;2023-06-24T05:14:06;13.80;;;7.27;;
18072;SDS011;9161;47.348;9.648;2023-06-24T05:19:09;10.83;;;7.97;;
18072;SDS011;9161;47.348;9.648;2023-06-24T05:24:11;12.47;;;8.50;;
18072;SDS011;9161;47.348;9.648;2023-06-24T05:29:13;15.17;;;9.70;;
18072;SDS011;9161;47.348;9.648;2023-06-24T05:34:17;17.20;;;8.97;;
18072;SDS011;9161;47.348;9.648;2023-06-24T05:39:19;14.80;;;9.87;;
18072;SDS011;9161;47.348;9.648;2023-06-24T05:44:21;12.90;;;9.57;;
18072;SDS011;9161;47.348;9.648;2023-06-24T05:49:25;16.70;;;8.53;;
18072;SDS011;9161;47.348;9.648;2023-06-24T05:54:27;12.60;;;9.10;;
18072;SDS011;9161;47.348;9.648;2023-06-24T05:59:29;17.13;;;9.33;;
18072;SDS011;9161;47.348;9.648;2023-06-24T06:04:33;14.93;;;9.87;;
18072;SDS011;9161;47.348;9.648;2023-06-24T06:09:35;14.87;;;10.10;;
18072;SDS011;9161;47.348;9.648;2023-06-24T06:14:37;15.27;;;9.67;;
18072;SDS011;9161;47.348;9.648;2023-06-24T06:19:41;16.17;;;9.20;;
18072;SDS011;9161;47.348;9.648;2023-06-24T06:24:49;14.90;;;9.13;;
18072;SDS011;9161;47.348;9.648;2023-06-24T06:29:51;16.77;;;9.37;;
18072;SDS011;9161;47.348;9.648;2023-06-24T06:34:55;12.40;;;8.60;;
18072;SDS011;9161;47.348;9.648;2023-06-24T06:39:57;13.00;;;8.67;;
18072;SDS011;9161;47.348;9.648;2023-06-24T06:44:59;10.50;;;8.03;;
18072;SDS011;9161;47.348;9.648;2023-06-24T06:50:03;11.77;;;8.17;;
18072;SDS011;9161;47.348;9.648;2023-06-24T06:55:06;13.20;;;7.73;;
18072;SDS011;9161;47.348;9.648;2023-06-24T07:00:09;11.10;;;7.47;;
18072;SDS011;9161;47.348;9.648;2023-06-24T07:05:13;10.87;;;8.03;;
18072;SDS011;9161;47.348;9.648;2023-06-24T07:10:15;11.57;;;7.37;;
18072;SDS011;9161;47.348;9.648;2023-06-24T07:15:18;9.07;;;6.70;;
18072;SDS011;9161;47.348;9.648;2023-06-24T07:20:22;9.60;;;6.43;;
18072;SDS011;9161;47.348;9.648;2023-06-24T07:25:24;8.23;;;5.80;;
18072;SDS011;9161;47.348;9.648;2023-06-24T07:30:26;10.00;;;5.87;;
18072;SDS011;9161;47.348;9.648;2023-06-24T07:35:30;8.13;;;5.37;;
18072;SDS011;9161;47.348;9.648;2023-06-24T07:40:33;9.53;;;5.60;;
18072;SDS011;9161;47.348;9.648;2023-06-24T07:45:35;10.77;;;5.78;;
18072;SDS011;9161;47.348;9.648;2023-06-24T07:50:39;7.87;;;6.20;;
18072;SDS011;9161;47.348;9.648;2023-06-24T07:55:41;10.40;;;6.17;;
18072;SDS011;9161;47.348;9.648;2023-06-24T08:00:43;10.10;;;6.70;;
18072;SDS011;9161;47.348;9.648;2023-06-24T08:05:47;8.20;;;5.73;;
18072;SDS011;9161;47.348;9.648;2023-06-24T08:10:49;10.43;;;5.57;;
18072;SDS011;9161;47.348;9.648;2023-06-24T08:15:51;13.63;;;6.43;;
18072;SDS011;9161;47.348;9.648;2023-06-24T08:20:55;9.47;;;5.90;;
18072;SDS011;9161;47.348;9.648;2023-06-24T08:25:57;10.00;;;6.37;;
18072;SDS011;9161;47.348;9.648;2023-06-24T08:31:16;9.73;;;6.15;;
18072;SDS011;9161;47.348;9.648;2023-06-24T08:36:20;10.45;;;5.80;;
18072;SDS011;9161;47.348;9.648;2023-06-24T08:41:24;7.68;;;5.35;;
18072;SDS011;9161;47.348;9.648;2023-06-24T08:46:26;10.20;;;5.93;;
18072;SDS011;9161;47.348;9.648;2023-06-24T08:51:32;10.88;;;5.05;;
18072;SDS011;9161;47.348;9.648;2023-06-24T08:56:41;10.93;;;5.65;;
18072;SDS011;9161;47.348;9.648;2023-06-24T09:01:43;12.25;;;5.95;;
18072;SDS011;9161;47.348;9.648;2023-06-24T09:06:46;8.50;;;5.88;;
18072;SDS011;9161;47.348;9.648;2023-06-24T09:11:52;11.93;;;5.95;;
18072;SDS011;9161;47.348;9.648;2023-06-24T09:16:56;8.27;;;5.43;;
18072;SDS011;9161;47.348;9.648;2023-06-24T09:22:02;8.50;;;5.43;;
18072;SDS011;9161;47.348;9.648;2023-06-24T09:27:05;8.13;;;5.30;;
18072;SDS011;9161;47.348;9.648;2023-06-24T09:32:08;7.13;;;5.40;;
18072;SDS011;9161;47.348;9.648;2023-06-24T09:37:13;7.47;;;5.47;;
18072;SDS011;9161;47.348;9.648;2023-06-24T09:42:23;7.05;;;5.53;;
18072;SDS011;9161;47.348;9.648;2023-06-24T09:47:25;8.32;;;6.10;;
18072;SDS011;9161;47.348;9.648;2023-06-24T09:52:30;11.30;;;6.25;;
18072;SDS011;9161;47.348;9.648;2023-06-24T09:57:34;6.72;;;6.00;;
18072;SDS011;9161;47.348;9.648;2023-06-24T10:02:38;13.27;;;6.55;;
18072;SDS011;9161;47.348;9.648;2023-06-24T10:07:42;9.00;;;6.28;;
18072;SDS011;9161;47.348;9.648;2023-06-24T10:12:45;10.20;;;5.75;;
18072;SDS011;9161;47.348;9.648;2023-06-24T10:17:47;8.27;;;6.88;;
18072;SDS011;9161;47.348;9.648;2023-06-24T10:22:51;8.30;;;6.22;;
18072;SDS011;9161;47.348;9.648;2023-06-24T10:27:54;8.32;;;5.68;;
18072;SDS011;9161;47.348;9.648;2023-06-24T10:32:56;4.53;;;3.65;;
18072;SDS011;9161;47.348;9.648;2023-06-24T10:38:00;3.95;;;3.03;;
18072;SDS011;9161;47.348;9.648;2023-06-24T10:43:04;3.15;;;2.75;;
18072;SDS011;9161;47.348;9.648;2023-06-24T10:48:26;4.50;;;2.97;;
18072;SDS011;9161;47.348;9.648;2023-06-24T10:53:30;6.40;;;3.67;;
18072;SDS011;9161;47.348;9.648;2023-06-24T10:58:31;6.32;;;2.70;;
18072;SDS011;9161;47.348;9.648;2023-06-24T11:03:34;4.82;;;2.83;;
18072;SDS011;9161;47.348;9.648;2023-06-24T11:08:43;4.65;;;2.33;;
18072;SDS011;9161;47.348;9.648;2023-06-24T11:13:47;3.70;;;3.40;;
18072;SDS011;9161;47.348;9.648;2023-06-24T11:18:50;4.65;;;2.47;;
18072;SDS011;9161;47.348;9.648;2023-06-24T11:23:53;3.35;;;3.00;;
18072;SDS011;9161;47.348;9.648;2023-06-24T11:28:55;3.28;;;2.70;;
18072;SDS011;9161;47.348;9.648;2023-06-24T11:33:57;5.38;;;3.00;;
18072;SDS011;9161;47.348;9.648;2023-06-24T11:39:01;3.08;;;2.40;;
18072;SDS011;9161;47.348;9.648;2023-06-24T11:44:03;3.70;;;2.38;;
18072;SDS011;9161;47.348;9.648;2023-06-24T11:49:07;3.45;;;2.47;;
18072;SDS011;9161;47.348;9.648;2023-06-24T11:54:11;3.88;;;2.50;;
18072;SDS011;9161;47.348;9.648;2023-06-24T11:59:16;4.53;;;2.78;;
18072;SDS011;9161;47.348;9.648;2023-06-24T12:04:19;3.00;;;2.70;;
18072;SDS011;9161;47.348;9.648;2023-06-24T12:09:23;2.95;;;2.65;;
18072;SDS011;9161;47.348;9.648;2023-06-24T12:14:26;4.03;;;3.38;;
18072;SDS011;9161;47.348;9.648;2023-06-24T12:19:28;4.25;;;2.92;;
18072;SDS011;9161;47.348;9.648;2023-06-24T12:24:31;3.85;;;2.60;;
18072;SDS011;9161;47.348;9.648;2023-06-24T12:29:34;5.25;;;2.63;;
18072;SDS011;9161;47.348;9.648;2023-06-24T12:34:36;3.03;;;2.67;;
18072;SDS011;9161;47.348;9.648;2023-06-24T12:39:40;3.28;;;2.83;;
18072;SDS011;9161;47.348;9.648;2023-06-24T12:44:43;6.15;;;2.75;;
18072;SDS011;9161;47.348;9.648;2023-06-24T12:49:45;3.10;;;2.70;;
18072;SDS011;9161;47.348;9.648;2023-06-24T12:54:49;3.42;;;2.53;;
18072;SDS011;9161;47.348;9.648;2023-06-24T12:59:51;4.05;;;2.75;;
18072;SDS011;9161;47.348;9.648;2023-06-24T13:04:53;3.47;;;2.60;;
18072;SDS011;9161;47.348;9.648;2023-06-24T13:09:57;3.55;;;2.60;;
18072;SDS011;9161;47.348;9.648;2023-06-24T13:15:00;3.97;;;2.95;;
18072;SDS011;9161;47.348;9.648;2023-06-24T13:20:04;4.55;;;2.70;;
18072;SDS011;9161;47.348;9.648;2023-06-24T13:25:09;5.55;;;2.60;;
18072;SDS011;9161;47.348;9.648;2023-06-24T13:30:13;2.70;;;2.50;;
18072;SDS011;9161;47.348;9.648;2023-06-24T13:35:16;5.10;;;2.95;;
18072;SDS011;9161;47.348;9.648;2023-06-24T13:40:20;3.00;;;2.65;;
18072;SDS011;9161;47.348;9.648;2023-06-24T13:45:23;3.85;;;2.45;;
18072;SDS011;9161;47.348;9.648;2023-06-24T13:50:25;3.88;;;2.70;;
18072;SDS011;9161;47.348;9.648;2023-06-24T13:55:28;3.78;;;2.95;;
18072;SDS011;9161;47.348;9.648;2023-06-24T14:00:31;3.35;;;2.88;;
18072;SDS011;9161;47.348;9.648;2023-06-24T14:05:34;5.75;;;2.85;;
18072;SDS011;9161;47.348;9.648;2023-06-24T14:10:37;9.98;;;3.33;;
18072;SDS011;9161;47.348;9.648;2023-06-24T14:15:40;3.92;;;2.60;;
18072;SDS011;9161;47.348;9.648;2023-06-24T14:20:42;3.55;;;2.60;;
18072;SDS011;9161;47.348;9.648;2023-06-24T14:25:46;4.57;;;3.00;;
18072;SDS011;9161;47.348;9.648;2023-06-24T14:30:48;37.90;;;4.28;;
18072;SDS011;9161;47.348;9.648;2023-06-24T14:35:50;3.33;;;2.50;;
18072;SDS011;9161;47.348;9.648;2023-06-24T14:40:54;3.00;;;2.70;;
18072;SDS011;9161;47.348;9.648;2023-06-24T14:45:57;3.17;;;2.70;;
18072;SDS011;9161;47.348;9.648;2023-06-24T14:50:59;3.60;;;2.70;;
18072;SDS011;9161;47.348;9.648;2023-06-24T14:56:03;3.30;;;2.90;;
18072;SDS011;9161;47.348;9.648;2023-06-24T15:01:05;7.50;;;3.08;;
18072;SDS011;9161;47.348;9.648;2023-06-24T15:06:08;3.20;;;2.65;;
18072;SDS011;9161;47.348;9.648;2023-06-24T15:11:11;4.93;;;2.97;;
18072;SDS011;9161;47.348;9.648;2023-06-24T15:16:14;5.82;;;3.13;;
18072;SDS011;9161;47.348;9.648;2023-06-24T15:21:15;3.50;;;2.95;;
18072;SDS011;9161;47.348;9.648;2023-06-24T15:26:36;5.30;;;2.83;;
18072;SDS011;9161;47.348;9.648;2023-06-24T15:31:38;3.78;;;2.92;;
18072;SDS011;9161;47.348;9.648;2023-06-24T15:36:40;5.80;;;3.05;;
18072;SDS011;9161;47.348;9.648;2023-06-24T15:41:46;3.97;;;2.63;;
18072;SDS011;9161;47.348;9.648;2023-06-24T15:46:50;4.68;;;2.92;;
18072;SDS011;9161;47.348;9.648;2023-06-24T15:51:52;3.75;;;3.00;;
18072;SDS011;9161;47.348;9.648;2023-06-24T15:56:56;5.78;;;3.00;;
18072;SDS011;9161;47.348;9.648;2023-06-24T16:01:58;4.97;;;2.92;;
18072;SDS011;9161;47.348;9.648;2023-06-24T16:07:00;3.55;;;2.80;;
18072;SDS011;9161;47.348;9.648;2023-06-24T16:12:04;4.22;;;3.20;;
18072;SDS011;9161;47.348;9.648;2023-06-24T16:17:06;6.18;;;3.05;;
18072;SDS011;9161;47.348;9.648;2023-06-24T16:22:08;7.78;;;3.00;;
18072;SDS011;9161;47.348;9.648;2023-06-24T16:27:12;3.42;;;2.88;;
18072;SDS011;9161;47.348;9.648;2023-06-24T16:32:14;7.03;;;2.58;;
18072;SDS011;9161;47.348;9.648;2023-06-24T16:37:17;5.53;;;3.72;;
18072;SDS011;9161;47.348;9.648;2023-06-24T16:42:20;5.22;;;3.20;;
18072;SDS011;9161;47.348;9.648;2023-06-24T16:47:23;3.70;;;3.05;;
18072;SDS011;9161;47.348;9.648;2023-06-24T16:52:26;4.05;;;2.85;;
18072;SDS011;9161;47.348;9.648;2023-06-24T16:57:31;5.80;;;3.40;;
18072;SDS011;9161;47.348;9.648;2023-06-24T17:02:33;3.40;;;2.95;;
18072;SDS011;9161;47.348;9.648;2023-06-24T17:07:35;4.15;;;2.72;;
18072;SDS011;9161;47.348;9.648;2023-06-24T17:12:39;3.55;;;2.97;;
18072;SDS011;9161;47.348;9.648;2023-06-24T17:17:41;3.72;;;2.83;;
18072;SDS011;9161;47.348;9.648;2023-06-24T17:22:43;10.90;;;3.20;;
18072;SDS011;9161;47.348;9.648;2023-06-24T17:27:47;10.57;;;3.70;;
18072;SDS011;9161;47.348;9.648;2023-06-24T17:32:50;4.97;;;3.03;;
18072;SDS011;9161;47.348;9.648;2023-06-24T17:37:52;8.82;;;3.40;;
18072;SDS011;9161;47.348;9.648;2023-06-24T17:42:56;7.47;;;3.00;;
18072;SDS011;9161;47.348;9.648;2023-06-24T17:47:58;3.85;;;3.15;;
18072;SDS011;9161;47.348;9.648;2023-06-24T17:53:01;5.05;;;3.08;;
18072;SDS011;9161;47.348;9.648;2023-06-24T17:58:05;4.93;;;2.90;;
18072;SDS011;9161;47.348;9.648;2023-06-24T18:03:08;5.05;;;3.00;;
18072;SDS011;9161;47.348;9.648;2023-06-24T18:08:11;12.50;;;3.10;;
18072;SDS011;9161;47.348;9.648;2023-06-24T18:13:14;6.25;;;3.00;;
18072;SDS011;9161;47.348;9.648;2023-06-24T18:18:16;7.10;;;3.15;;
18072;SDS011;9161;47.348;9.648;2023-06-24T18:23:19;4.25;;;2.90;;
18072;SDS011;9161;47.348;9.648;2023-06-24T18:28:23;3.67;;;2.95;;
18072;SDS011;9161;47.348;9.648;2023-06-24T18:33:25;11.60;;;3.28;;
18072;SDS011;9161;47.348;9.648;2023-06-24T18:39:08;5.75;;;3.17;;
18072;SDS011;9161;47.348;9.648;2023-06-24T18:44:27;6.97;;;3.00;;
18072;SDS011;9161;47.348;9.648;2023-06-24T18:49:52;4.95;;;2.67;;
18072;SDS011;9161;47.348;9.648;2023-06-24T18:54:57;3.67;;;2.85;;
18072;SDS011;9161;47.348;9.648;2023-06-24T19:00:00;5.97;;;3.33;;
18072;SDS011;9161;47.348;9.648;2023-06-24T19:05:03;5.60;;;3.42;;
18072;SDS011;9161;47.348;9.648;2023-06-24T19:10:06;10.80;;;6.97;;
18072;SDS011;9161;47.348;9.648;2023-06-24T19:15:09;6.80;;;3.50;;
18072;SDS011;9161;47.348;9.648;2023-06-24T19:20:12;12.05;;;5.85;;
18072;SDS011;9161;47.348;9.648;2023-06-24T19:25:15;10.38;;;4.65;;
18072;SDS011;9161;47.348;9.648;2023-06-24T19:30:20;5.43;;;3.92;;
18072;SDS011;9161;47.348;9.648;2023-06-24T19:35:22;10.65;;;3.25;;
18072;SDS011;9161;47.348;9.648;2023-06-24T19:40:25;4.95;;;3.58;;
18072;SDS011;9161;47.348;9.648;2023-06-24T19:45:28;6.57;;;3.83;;
18072;SDS011;9161;47.348;9.648;2023-06-24T19:50:30;13.68;;;3.42;;
18072;SDS011;9161;47.348;9.648;2023-06-24T19:55:33;8.10;;;3.60;;
18072;SDS011;9161;47.348;9.648;2023-06-24T20:00:36;6.40;;;3.95;;
18072;SDS011;9161;47.348;9.648;2023-06-24T20:05:38;7.15;;;4.20;;
18072;SDS011;9161;47.348;9.648;2023-06-24T20:10:40;6.35;;;3.63;;
18072;SDS011;9161;47.348;9.648;2023-06-24T20:15:44;7.78;;;4.20;;
18072;SDS011;9161;47.348;9.648;2023-06-24T20:20:46;5.97;;;3.83;;
18072;SDS011;9161;47.348;9.648;2023-06-24T20:25:49;5.75;;;3.80;;
18072;SDS011;9161;47.348;9.648;2023-06-24T20:30:52;6.30;;;3.63;;
18072;SDS011;9161;47.348;9.648;2023-06-24T20:36:02;5.13;;;3.42;;
18072;SDS011;9161;47.348;9.648;2023-06-24T20:41:05;5.35;;;3.35;;
18072;SDS011;9161;47.348;9.648;2023-06-24T20:46:08;4.65;;;3.50;;
18072;SDS011;9161;47.348;9.648;2023-06-24T20:51:11;11.00;;;3.78;;
18072;SDS011;9161;47.348;9.648;2023-06-24T20:56:14;7.05;;;4.43;;
18072;SDS011;9161;47.348;9.648;2023-06-24T21:01:18;7.65;;;4.78;;
18072;SDS011;9161;47.348;9.648;2023-06-24T21:06:20;7.90;;;4.90;;
18072;SDS011;9161;47.348;9.648;2023-06-24T21:11:23;8.98;;;4.80;;
18072;SDS011;9161;47.348;9.648;2023-06-24T21:16:27;9.13;;;4.80;;
18072;SDS011;9161;47.348;9.648;2023-06-24T21:21:29;7.13;;;4.38;;
18072;SDS011;9161;47.348;9.648;2023-06-24T21:26:32;8.20;;;4.53;;
18072;SDS011;9161;47.348;9.648;2023-06-24T21:31:35;7.75;;;4.50;;
18072;SDS011;9161;47.348;9.648;2023-06-24T21:36:37;5.78;;;3.97;;
18072;SDS011;9161;47.348;9.648;2023-06-24T21:41:40;9.23;;;4.90;;
18072;SDS011;9161;47.348;9.648;2023-06-24T21:46:44;8.10;;;4.47;;
18072;SDS011;9161;47.348;9.648;2023-06-24T21:51:46;7.17;;;4.83;;
18072;SDS011;9161;47.348;9.648;2023-06-24T21:56:48;11.60;;;4.22;;
18072;SDS011;9161;47.348;9.648;2023-06-24T22:07:08;13.23;;;5.00;;
18072;SDS011;9161;47.348;9.648;2023-06-24T22:12:10;7.30;;;4.35;;
18072;SDS011;9161;47.348;9.648;2023-06-24T22:17:12;7.60;;;4.85;;
18072;SDS011;9161;47.348;9.648;2023-06-24T22:22:16;7.03;;;4.78;;
18072;SDS011;9161;47.348;9.648;2023-06-24T22:27:19;7.97;;;3.70;;
18072;SDS011;9161;47.348;9.648;2023-06-24T22:32:21;6.57;;;4.17;;
18072;SDS011;9161;47.348;9.648;2023-06-24T22:37:24;5.53;;;4.13;;
18072;SDS011;9161;47.348;9.648;2023-06-24T22:42:27;5.17;;;3.63;;
18072;SDS011;9161;47.348;9.648;2023-06-24T22:47:29;7.93;;;3.90;;
18072;SDS011;9161;47.348;9.648;2023-06-24T22:52:33;5.10;;;3.67;;
18072;SDS011;9161;47.348;9.648;2023-06-24T22:57:37;6.63;;;3.67;;
18072;SDS011;9161;47.348;9.648;2023-06-24T23:02:40;7.87;;;4.50;;
18072;SDS011;9161;47.348;9.648;2023-06-24T23:07:44;6.33;;;4.07;;
18072;SDS011;9161;47.348;9.648;2023-06-24T23:12:47;5.60;;;3.80;;
18072;SDS011;9161;47.348;9.648;2023-06-24T23:17:49;8.23;;;4.43;;
18072;SDS011;9161;47.348;9.648;2023-06-24T23:22:57;7.63;;;4.87;;
18072;SDS011;9161;47.348;9.648;2023-06-24T23:27:59;8.73;;;4.87;;
18072;SDS011;9161;47.348;9.648;2023-06-24T23:33:04;8.90;;;4.80;;
18072;SDS011;9161;47.348;9.648;2023-06-24T23:38:08;5.97;;;4.60;;
18072;SDS011;9161;47.348;9.648;2023-06-24T23:43:11;7.47;;;5.03;;
18072;SDS011;9161;47.348;9.648;2023-06-24T23:48:14;7.87;;;5.37;;
18072;SDS011;9161;47.348;9.648;2023-06-24T23:53:20;8.57;;;5.40;;
18072;SDS011;9161;47.348;9.648;2023-06-24T23:58:22;8.27;;;5.23;;
